createdAt,value
2023-02-13T00:03:26.634Z,4.4
2023-02-13T00:09:46.645Z,4.4
2023-02-13T00:16:09.609Z,6.1
2023-02-13T00:22:29.644Z,6.1
2023-02-13T00:28:52.588Z,5.8
2023-02-13T00:35:12.618Z,5.8
2023-02-13T00:41:35.577Z,6.4
2023-02-13T00:47:55.664Z,6.4
2023-02-13T00:54:18.580Z,7.5
2023-02-13T01:00:38.610Z,7.5
2023-02-13T01:07:01.567Z,3.9
2023-02-13T01:13:21.701Z,3.9
2023-02-13T01:19:44.634Z,5.8
2023-02-13T01:26:04.627Z,5.8
2023-02-13T01:32:27.597Z,5.7
2023-02-13T01:38:47.689Z,5.7
2023-02-13T01:45:10.550Z,9.8
2023-02-13T01:51:30.665Z,9.8
2023-02-13T01:57:53.603Z,6.1
2023-02-13T02:04:13.630Z,6.1
2023-02-13T02:10:36.623Z,7.1
2023-02-13T02:16:56.688Z,7.1
2023-02-13T02:23:19.565Z,4.1
2023-02-13T02:29:39.547Z,4.1
2023-02-13T02:36:02.546Z,4.8
2023-02-13T02:42:22.642Z,4.8
2023-02-13T02:48:45.501Z,4.8
2023-02-13T02:55:05.653Z,4.8
2023-02-13T03:01:28.567Z,5.8
2023-02-13T03:07:48.605Z,5.8
2023-02-13T03:14:11.556Z,6.3
2023-02-13T03:20:31.638Z,6.3
2023-02-13T03:26:54.577Z,7.6
2023-02-13T03:33:14.596Z,7.6
2023-02-13T03:39:37.620Z,7.1
2023-02-13T03:45:57.652Z,7.1
2023-02-13T03:52:20.695Z,7.9
2023-02-13T03:58:40.576Z,7.9
2023-02-13T04:05:03.657Z,6.6
2023-02-13T04:11:23.574Z,6.6
2023-02-13T04:17:46.598Z,8.7
2023-02-13T04:33:56.357Z,4.7
2023-02-13T04:40:19.071Z,12
2023-02-13T04:46:38.497Z,12
2023-02-13T04:53:01.520Z,12
2023-02-13T04:59:21.525Z,12
2023-02-13T05:05:44.634Z,8.9
2023-02-13T05:12:04.597Z,8.9
2023-02-13T05:18:27.610Z,10.6
2023-02-13T05:24:47.610Z,10.6
2023-02-13T05:31:10.709Z,6.9
2023-02-13T05:37:30.607Z,6.9
2023-02-13T05:43:53.590Z,4.7
2023-02-13T05:50:13.557Z,4.7
2023-02-13T05:56:36.560Z,6
2023-02-13T06:02:56.637Z,6
2023-02-13T06:09:19.552Z,3.1
2023-02-13T06:15:39.546Z,3.1
2023-02-13T06:22:02.601Z,7
2023-02-13T06:28:22.637Z,7
2023-02-13T06:34:45.539Z,7.9
2023-02-13T06:41:05.728Z,7.9
2023-02-13T06:47:28.688Z,7.5
2023-02-13T06:53:48.556Z,7.5
2023-02-13T07:00:11.607Z,2
2023-02-13T07:06:33.018Z,2
2023-02-13T07:13:05.198Z,8.4
2023-02-13T07:19:14.552Z,8.4
2023-02-13T07:25:37.576Z,8.4
2023-02-13T07:31:57.663Z,8.4
2023-02-13T07:38:27.363Z,9.4
2023-02-13T07:44:47.630Z,9.4
2023-02-13T07:51:12.226Z,6
2023-02-13T07:57:33.267Z,6
2023-02-13T08:03:56.715Z,6.8
2023-02-13T08:10:16.573Z,6.8
2023-02-13T08:16:39.681Z,8.7
2023-02-13T08:22:59.642Z,8.7
2023-02-13T08:29:22.586Z,6.3
2023-02-13T08:35:42.604Z,6.3
2023-02-13T08:42:05.591Z,5.8
2023-02-13T08:48:25.614Z,5.8
2023-02-13T08:54:48.634Z,7.7
2023-02-13T09:01:08.690Z,7.7
2023-02-13T09:07:31.622Z,6.3
2023-02-13T09:13:51.598Z,6.3
2023-02-13T09:20:14.618Z,7.4
2023-02-13T09:26:34.546Z,7.4
2023-02-13T09:32:57.546Z,6.2
2023-02-13T09:49:58.125Z,6.7
2023-02-13T09:56:20.038Z,8.5
2023-02-13T10:02:39.527Z,8.5
2023-02-13T10:09:02.600Z,8.5
2023-02-13T10:15:22.537Z,8.5
2023-02-13T10:21:45.507Z,3.9
2023-02-13T10:28:05.796Z,3.9
2023-02-13T10:34:28.542Z,4.3
2023-02-13T10:40:48.556Z,4.3
2023-02-13T10:47:11.532Z,6.1
2023-02-13T10:53:31.514Z,6.1
2023-02-13T10:59:54.610Z,3.8
2023-02-13T11:06:14.838Z,3.8
2023-02-13T11:12:37.539Z,2
2023-02-13T11:18:57.519Z,2
2023-02-13T11:25:20.602Z,2.5
2023-02-13T11:31:40.737Z,2.5
2023-02-13T11:38:03.510Z,1.4
2023-02-13T11:44:23.576Z,1.4
2023-02-13T11:50:46.484Z,1.9
2023-02-13T11:57:06.579Z,1.9
2023-02-13T12:03:29.714Z,3.5
2023-02-13T12:09:49.512Z,3.5
2023-02-13T12:16:12.606Z,1.4
2023-02-13T12:22:34.615Z,1.4
2023-02-13T12:28:55.681Z,2.1
2023-02-13T12:35:15.509Z,2.1
2023-02-13T12:41:38.560Z,2
2023-02-13T12:47:58.574Z,2
2023-02-13T12:54:21.509Z,1.3
2023-02-13T13:00:41.585Z,1.3
2023-02-13T13:07:05.005Z,2
2023-02-13T13:13:24.478Z,2
2023-02-13T13:19:47.574Z,2.6
2023-02-13T13:26:07.496Z,2.6
2023-02-13T13:32:30.550Z,1.2
2023-02-13T13:38:50.718Z,1.2
2023-02-13T13:45:13.528Z,0.6
2023-02-13T13:51:33.519Z,0.6
2023-02-13T13:57:56.562Z,1.2
2023-02-13T14:04:16.549Z,1.2
2023-02-13T14:10:39.486Z,0.4
2023-02-13T14:16:59.548Z,0.4
2023-02-13T14:23:22.506Z,2.6
2023-02-13T14:29:42.500Z,2.6
2023-02-13T14:36:05.542Z,1.2
2023-02-13T14:42:25.487Z,1.2
2023-02-13T14:48:48.504Z,2
2023-02-13T14:55:08.527Z,2
2023-02-13T15:01:31.599Z,1.9
2023-02-13T15:07:51.643Z,1.9
2023-02-13T15:30:40.560Z,1.9
2023-02-13T15:37:03.490Z,1.9
2023-02-13T15:43:23.581Z,1.9
2023-02-13T15:49:46.591Z,1.1
2023-02-13T15:56:06.526Z,1.1
2023-02-13T16:02:29.736Z,0.7
2023-02-13T16:08:49.540Z,0.7
2023-02-13T16:15:12.566Z,1.6
2023-02-13T16:21:32.504Z,1.6
2023-02-13T16:27:55.558Z,1.1
2023-02-13T16:34:15.546Z,1.1
2023-02-13T16:40:38.611Z,0.5
2023-02-13T16:46:58.633Z,0.5
2023-02-13T16:53:21.553Z,1
2023-02-13T16:59:41.647Z,1
2023-02-13T17:06:04.579Z,0.7
2023-02-13T17:12:24.530Z,0.7
2023-02-13T17:18:50.187Z,1.3
2023-02-13T17:25:10.653Z,1.3
2023-02-13T17:31:33.838Z,1.4
2023-02-13T17:37:53.572Z,1.4
2023-02-13T17:44:16.601Z,1.6
2023-02-13T17:50:36.640Z,1.6
2023-02-13T17:56:59.606Z,1.8
2023-02-13T18:03:19.566Z,1.8
2023-02-13T18:09:42.515Z,3.1
2023-02-13T18:16:02.650Z,3.1
2023-02-13T18:22:25.581Z,4.4
2023-02-13T18:28:46.007Z,4.4
2023-02-13T18:35:08.733Z,2
2023-02-13T18:41:28.609Z,2
2023-02-13T18:47:51.666Z,3
2023-02-13T18:54:11.555Z,3
2023-02-13T19:00:34.560Z,3.2
2023-02-13T19:06:54.590Z,3.2
2023-02-13T19:13:17.604Z,3.2
2023-02-13T19:19:37.592Z,3.2
2023-02-13T19:26:00.568Z,2.7
2023-02-13T19:32:20.642Z,2.7
2023-02-13T19:38:43.687Z,2.5
2023-02-13T19:45:03.555Z,2.5
2023-02-13T19:51:26.634Z,2.5
2023-02-13T19:57:46.618Z,2.5
2023-02-13T20:04:09.569Z,3.6
2023-02-13T20:10:29.594Z,3.6
2023-02-13T20:16:52.649Z,3.4
2023-02-13T20:23:12.614Z,3.4
2023-02-13T20:40:16.249Z,5.9
2023-02-13T20:46:36.517Z,5.9
2023-02-13T20:52:59.469Z,8.2
2023-02-13T20:59:19.564Z,8.2
2023-02-13T21:05:42.569Z,8.2
2023-02-13T21:12:02.520Z,8.2
2023-02-13T21:18:25.686Z,3.8
2023-02-13T21:24:45.610Z,3.8
2023-02-13T21:31:08.700Z,4.3
2023-02-13T21:37:28.602Z,4.3
2023-02-13T21:43:51.539Z,6
2023-02-13T21:50:11.603Z,6
2023-02-13T21:56:34.619Z,4.6
2023-02-13T22:02:54.735Z,4.6
2023-02-13T22:09:17.602Z,4.5
2023-02-13T22:15:37.536Z,4.5
2023-02-13T22:22:00.632Z,2.3
2023-02-13T22:28:20.507Z,2.3
2023-02-13T22:34:43.536Z,4.7
2023-02-13T22:41:03.513Z,4.7
2023-02-13T22:47:26.574Z,3.5
2023-02-13T22:53:46.767Z,3.5
2023-02-13T23:00:09.617Z,5.6
2023-02-13T23:23:07.555Z,10.3
2023-02-13T23:29:27.478Z,10.3
2023-02-13T23:35:50.572Z,10.3
2023-02-13T23:42:10.640Z,10.3
2023-02-13T23:48:33.649Z,5.6
2023-02-13T23:54:53.606Z,5.6
